TSO706 UWKD-USPP
Flight info
| Callsign | TSO706 |
|---|---|
| Flight time | 0h 52m |
| Altitude | 33000 |
| Route | RIMIP1A RIMIP L94 GEMKI T765 INGEN W63 ULPET ULPET1A |
| Aircraft | B732/M-SDFGHRWY/S |
Departure
| Time | 2026-04-26 05:53 |
|---|---|
| Airport | Kazan International Airport (UWKD) |
Arrival
| Time | 2026-04-26 06:46 |
|---|---|
| Airport | Perm International Airport (USPP) |
| Time | Latitude | Longitude | Altitude | Speed | Heading |
|---|---|---|---|---|---|
| 2026-04-26 05:22 | 55.60650 | 49.29732 | 420 ft | 0 kts | 33° |
| 2026-04-26 05:45 | 55.60663 | 49.29747 | 420 ft | 5 kts | 32° |
| 2026-04-26 05:45 | 55.60710 | 49.29743 | 420 ft | 11 kts | 314° |
| 2026-04-26 05:45 | 55.60766 | 49.29602 | 420 ft | 14 kts | 304° |
| 2026-04-26 05:46 | 55.60812 | 49.29455 | 420 ft | 12 kts | 271° |
| 2026-04-26 05:46 | 55.60756 | 49.29359 | 420 ft | 10 kts | 211° |
| 2026-04-26 05:46 | 55.60692 | 49.29284 | 420 ft | 11 kts | 215° |
| 2026-04-26 05:46 | 55.60617 | 49.29187 | 420 ft | 13 kts | 221° |
| 2026-04-26 05:47 | 55.60573 | 49.29027 | 420 ft | 15 kts | 269° |
| 2026-04-26 05:47 | 55.60583 | 49.28827 | 420 ft | 16 kts | 275° |
| 2026-04-26 05:47 | 55.60601 | 49.28606 | 420 ft | 18 kts | 290° |
| 2026-04-26 05:47 | 55.60678 | 49.28395 | 420 ft | 21 kts | 304° |
| 2026-04-26 05:48 | 55.60765 | 49.28167 | 420 ft | 22 kts | 304° |
| 2026-04-26 05:48 | 55.60864 | 49.27917 | 420 ft | 24 kts | 305° |
| 2026-04-26 05:48 | 55.60963 | 49.27655 | 420 ft | 26 kts | 303° |
| 2026-04-26 05:48 | 55.61091 | 49.27330 | 420 ft | 34 kts | 304° |
| 2026-04-26 05:49 | 55.61240 | 49.26985 | 420 ft | 33 kts | 319° |
| 2026-04-26 05:49 | 55.61491 | 49.26297 | 420 ft | 31 kts | 304° |
| 2026-04-26 05:49 | 55.61617 | 49.25972 | 420 ft | 31 kts | 304° |
| 2026-04-26 05:50 | 55.61741 | 49.25651 | 420 ft | 30 kts | 305° |
| 2026-04-26 05:50 | 55.61835 | 49.25410 | 420 ft | 6 kts | 303° |
| 2026-04-26 05:50 | 55.61852 | 49.25335 | 420 ft | 6 kts | 268° |
| 2026-04-26 05:50 | 55.61833 | 49.25270 | 420 ft | 5 kts | 217° |
| 2026-04-26 05:51 | 55.61809 | 49.25239 | 420 ft | 0 kts | 213° |
| 2026-04-26 05:51 | 55.61781 | 49.25205 | 420 ft | 9 kts | 214° |
| 2026-04-26 05:51 | 55.61709 | 49.25138 | 420 ft | 11 kts | 186° |
| 2026-04-26 05:52 | 55.61657 | 49.25220 | 420 ft | 5 kts | 124° |
| 2026-04-26 05:52 | 55.61656 | 49.25222 | 420 ft | 0 kts | 124° |
| 2026-04-26 05:52 | 55.61524 | 49.25553 | 420 ft | 69 kts | 126° |
| 2026-04-26 05:52 | 55.61098 | 49.26660 | 420 ft | 141 kts | 125° |
| 2026-04-26 05:53 | 55.60436 | 49.28347 | 627 ft | 176 kts | 124° |
| 2026-04-26 05:53 | 55.59754 | 49.30321 | 840 ft | 191 kts | 116° |
| 2026-04-26 05:53 | 55.59543 | 49.32773 | 1322 ft | 212 kts | 82° |
| 2026-04-26 05:53 | 55.59973 | 49.35537 | 1790 ft | 237 kts | 73° |
| 2026-04-26 05:54 | 55.60414 | 49.38397 | 2622 ft | 239 kts | 77° |
| 2026-04-26 05:54 | 55.60739 | 49.41318 | 3441 ft | 240 kts | 81° |
| 2026-04-26 05:54 | 55.60985 | 49.44326 | 4192 ft | 244 kts | 83° |
| 2026-04-26 05:54 | 55.61176 | 49.47411 | 4927 ft | 248 kts | 84° |
| 2026-04-26 05:55 | 55.61338 | 49.50545 | 5654 ft | 252 kts | 85° |
| 2026-04-26 05:55 | 55.61478 | 49.53814 | 6077 ft | 271 kts | 85° |
| 2026-04-26 05:55 | 55.61614 | 49.57369 | 6443 ft | 290 kts | 86° |
| 2026-04-26 05:55 | 55.61744 | 49.61023 | 7208 ft | 293 kts | 86° |
| 2026-04-26 05:56 | 55.61866 | 49.64697 | 8004 ft | 294 kts | 86° |
| 2026-04-26 05:56 | 55.61986 | 49.68422 | 8729 ft | 297 kts | 86° |
| 2026-04-26 05:56 | 55.62100 | 49.72160 | 9420 ft | 300 kts | 87° |
| 2026-04-26 05:56 | 55.62224 | 49.75988 | 10074 ft | 308 kts | 87° |
| 2026-04-26 05:57 | 55.62341 | 49.79906 | 10906 ft | 312 kts | 87° |
| 2026-04-26 05:57 | 55.62465 | 49.84012 | 11070 ft | 341 kts | 87° |
| 2026-04-26 05:57 | 55.62597 | 49.88428 | 11646 ft | 354 kts | 87° |
| 2026-04-26 05:57 | 55.62730 | 49.92916 | 12517 ft | 357 kts | 86° |
| 2026-04-26 05:58 | 55.62859 | 49.97394 | 13347 ft | 360 kts | 86° |
| 2026-04-26 05:58 | 55.62992 | 50.01981 | 14119 ft | 365 kts | 86° |
| 2026-04-26 05:58 | 55.63358 | 50.06514 | 14834 ft | 368 kts | 72° |
| 2026-04-26 05:58 | 55.64182 | 50.10919 | 15571 ft | 370 kts | 67° |
| 2026-04-26 05:59 | 55.65143 | 50.15299 | 16280 ft | 374 kts | 65° |
| 2026-04-26 05:59 | 55.66165 | 50.19704 | 16968 ft | 378 kts | 64° |
| 2026-04-26 05:59 | 55.67205 | 50.24088 | 17694 ft | 379 kts | 64° |
| 2026-04-26 05:59 | 55.68260 | 50.28500 | 18374 ft | 382 kts | 64° |
| 2026-04-26 06:00 | 55.69334 | 50.32975 | 18967 ft | 386 kts | 63° |
| 2026-04-26 06:00 | 55.70415 | 50.37479 | 19535 ft | 391 kts | 63° |
| 2026-04-26 06:00 | 55.71508 | 50.42041 | 20103 ft | 394 kts | 63° |
| 2026-04-26 06:00 | 55.72612 | 50.46662 | 20647 ft | 398 kts | 63° |
| 2026-04-26 06:01 | 55.73724 | 50.51324 | 21167 ft | 402 kts | 63° |
| 2026-04-26 06:01 | 55.74852 | 50.56065 | 21683 ft | 406 kts | 63° |
| 2026-04-26 06:01 | 55.75969 | 50.60767 | 22171 ft | 410 kts | 63° |
| 2026-04-26 06:01 | 55.77115 | 50.65602 | 22647 ft | 413 kts | 64° |
| 2026-04-26 06:02 | 55.78132 | 50.69901 | 23038 ft | 417 kts | 64° |
| 2026-04-26 06:02 | 55.78791 | 50.72690 | 23294 ft | 419 kts | 64° |
| 2026-04-26 06:02 | 55.79949 | 50.77601 | 23745 ft | 422 kts | 64° |
| 2026-04-26 06:02 | 55.81126 | 50.82610 | 24166 ft | 425 kts | 64° |
| 2026-04-26 06:03 | 55.82290 | 50.87569 | 24577 ft | 428 kts | 64° |
| 2026-04-26 06:03 | 55.83466 | 50.92590 | 24987 ft | 431 kts | 64° |
| 2026-04-26 06:03 | 55.84654 | 50.97681 | 25399 ft | 433 kts | 64° |
| 2026-04-26 06:03 | 55.85846 | 51.02796 | 25800 ft | 436 kts | 64° |
| 2026-04-26 06:04 | 55.87024 | 51.07870 | 26170 ft | 439 kts | 64° |
| 2026-04-26 06:04 | 55.88227 | 51.13059 | 26537 ft | 441 kts | 64° |
| 2026-04-26 06:04 | 55.89432 | 51.18272 | 26905 ft | 444 kts | 64° |
| 2026-04-26 06:04 | 55.90627 | 51.23454 | 27256 ft | 446 kts | 64° |
| 2026-04-26 06:05 | 55.91841 | 51.28733 | 27591 ft | 448 kts | 64° |
| 2026-04-26 06:05 | 55.93058 | 51.34036 | 27902 ft | 451 kts | 64° |
| 2026-04-26 06:05 | 55.94277 | 51.39362 | 28458 ft | 447 kts | 64° |
| 2026-04-26 06:05 | 55.95482 | 51.44638 | 28871 ft | 447 kts | 64° |
| 2026-04-26 06:06 | 55.96680 | 51.49896 | 29144 ft | 450 kts | 64° |
| 2026-04-26 06:06 | 55.97899 | 51.55262 | 29433 ft | 452 kts | 64° |
| 2026-04-26 06:06 | 55.99089 | 51.60511 | 29929 ft | 448 kts | 64° |
| 2026-04-26 06:06 | 56.00284 | 51.65800 | 30419 ft | 444 kts | 65° |
| 2026-04-26 06:07 | 56.01472 | 51.71063 | 30693 ft | 446 kts | 65° |
| 2026-04-26 06:07 | 56.02659 | 51.76342 | 30923 ft | 448 kts | 65° |
| 2026-04-26 06:07 | 56.04076 | 51.81335 | 31500 ft | 435 kts | 53° |
| 2026-04-26 06:07 | 56.05861 | 51.85762 | 31922 ft | 429 kts | 47° |
| 2026-04-26 06:08 | 56.07827 | 51.90023 | 32129 ft | 430 kts | 45° |
| 2026-04-26 06:08 | 56.09818 | 51.94145 | 32316 ft | 432 kts | 45° |
| 2026-04-26 06:08 | 56.11873 | 51.98338 | 32534 ft | 434 kts | 44° |
| 2026-04-26 06:08 | 56.13913 | 52.02478 | 32773 ft | 435 kts | 44° |
| 2026-04-26 06:09 | 56.15959 | 52.06630 | 32862 ft | 440 kts | 44° |
| 2026-04-26 06:09 | 56.20171 | 52.15194 | 32861 ft | 447 kts | 44° |
| 2026-04-26 06:10 | 56.24394 | 52.23809 | 32858 ft | 447 kts | 44° |
| 2026-04-26 06:10 | 56.28574 | 52.32365 | 32859 ft | 446 kts | 44° |
| 2026-04-26 06:11 | 56.32778 | 52.41003 | 32859 ft | 445 kts | 44° |
| 2026-04-26 06:11 | 56.36941 | 52.49587 | 32854 ft | 444 kts | 44° |
| 2026-04-26 06:12 | 56.41093 | 52.58177 | 32847 ft | 443 kts | 44° |
| 2026-04-26 06:12 | 56.45239 | 52.66787 | 32892 ft | 441 kts | 45° |
| 2026-04-26 06:12 | 56.47273 | 52.71022 | 32998 ft | 438 kts | 45° |
| 2026-04-26 06:13 | 56.49332 | 52.75318 | 32995 ft | 437 kts | 45° |
| 2026-04-26 06:13 | 56.53383 | 52.83791 | 32998 ft | 436 kts | 45° |
| 2026-04-26 06:14 | 56.57422 | 52.92268 | 32998 ft | 435 kts | 45° |
| 2026-04-26 06:14 | 56.61483 | 53.00832 | 32827 ft | 438 kts | 44° |
| 2026-04-26 06:15 | 56.65533 | 53.09387 | 32830 ft | 437 kts | 44° |
| 2026-04-26 06:15 | 56.69558 | 53.17924 | 32830 ft | 436 kts | 44° |
| 2026-04-26 06:16 | 56.73606 | 53.26545 | 32831 ft | 435 kts | 44° |
| 2026-04-26 06:16 | 56.77646 | 53.35178 | 32831 ft | 434 kts | 44° |
| 2026-04-26 06:17 | 56.81596 | 53.43652 | 32638 ft | 430 kts | 44° |
| 2026-04-26 06:17 | 56.83603 | 53.47973 | 31944 ft | 434 kts | 44° |
| 2026-04-26 06:17 | 56.85617 | 53.52311 | 31117 ft | 441 kts | 44° |
| 2026-04-26 06:17 | 56.87627 | 53.56649 | 30290 ft | 447 kts | 43° |
| 2026-04-26 06:18 | 56.89683 | 53.61097 | 29486 ft | 451 kts | 43° |
| 2026-04-26 06:18 | 56.91789 | 53.65653 | 28698 ft | 455 kts | 44° |
| 2026-04-26 06:18 | 56.93866 | 53.70161 | 27936 ft | 457 kts | 44° |
| 2026-04-26 06:18 | 56.95711 | 53.74173 | 27279 ft | 458 kts | 44° |
| 2026-04-26 06:19 | 56.97787 | 53.78696 | 26556 ft | 458 kts | 44° |
| 2026-04-26 06:19 | 56.99862 | 53.83224 | 25848 ft | 458 kts | 44° |
| 2026-04-26 06:19 | 57.01990 | 53.87878 | 25133 ft | 457 kts | 44° |
| 2026-04-26 06:19 | 57.04080 | 53.92458 | 24441 ft | 455 kts | 44° |
| 2026-04-26 06:20 | 57.06141 | 53.97016 | 23824 ft | 452 kts | 44° |
| 2026-04-26 06:20 | 57.08131 | 54.01530 | 23388 ft | 444 kts | 45° |
| 2026-04-26 06:20 | 57.10110 | 54.06041 | 22945 ft | 437 kts | 45° |
| 2026-04-26 06:20 | 57.12036 | 54.10451 | 22513 ft | 431 kts | 46° |
| 2026-04-26 06:21 | 57.13937 | 54.14818 | 22074 ft | 425 kts | 46° |
| 2026-04-26 06:21 | 57.15833 | 54.19177 | 21626 ft | 420 kts | 46° |
| 2026-04-26 06:21 | 57.17683 | 54.23436 | 21181 ft | 415 kts | 46° |
| 2026-04-26 06:21 | 57.19529 | 54.27698 | 20729 ft | 410 kts | 46° |
| 2026-04-26 06:22 | 57.21341 | 54.31900 | 20278 ft | 406 kts | 47° |
| 2026-04-26 06:22 | 57.23121 | 54.36039 | 19829 ft | 402 kts | 47° |
| 2026-04-26 06:22 | 57.24905 | 54.40192 | 19373 ft | 398 kts | 47° |
| 2026-04-26 06:22 | 57.26641 | 54.44244 | 18926 ft | 395 kts | 47° |
| 2026-04-26 06:23 | 57.28378 | 54.48305 | 18459 ft | 392 kts | 47° |
| 2026-04-26 06:23 | 57.30114 | 54.52369 | 17907 ft | 391 kts | 48° |
| 2026-04-26 06:23 | 57.31839 | 54.56415 | 17355 ft | 391 kts | 48° |
| 2026-04-26 06:23 | 57.33504 | 54.60329 | 16881 ft | 389 kts | 48° |
| 2026-04-26 06:24 | 57.35208 | 54.64344 | 16413 ft | 386 kts | 48° |
| 2026-04-26 06:24 | 57.36906 | 54.68346 | 15942 ft | 383 kts | 49° |
| 2026-04-26 06:24 | 57.38578 | 54.72292 | 15477 ft | 381 kts | 49° |
| 2026-04-26 06:24 | 57.40232 | 54.76208 | 15015 ft | 378 kts | 49° |
| 2026-04-26 06:25 | 57.41863 | 54.80073 | 14560 ft | 376 kts | 49° |
| 2026-04-26 06:25 | 57.43441 | 54.83809 | 14121 ft | 373 kts | 49° |
| 2026-04-26 06:25 | 57.45101 | 54.87723 | 13659 ft | 371 kts | 49° |
| 2026-04-26 06:25 | 57.46716 | 54.91530 | 13210 ft | 369 kts | 49° |
| 2026-04-26 06:26 | 57.48354 | 54.95393 | 12756 ft | 366 kts | 49° |
| 2026-04-26 06:26 | 57.49949 | 54.99164 | 12313 ft | 364 kts | 49° |
| 2026-04-26 06:26 | 57.51546 | 55.02945 | 11869 ft | 362 kts | 49° |
| 2026-04-26 06:26 | 57.53132 | 55.06707 | 11428 ft | 360 kts | 49° |
| 2026-04-26 06:27 | 57.54711 | 55.10459 | 10988 ft | 358 kts | 49° |
| 2026-04-26 06:27 | 57.56287 | 55.14206 | 10549 ft | 356 kts | 49° |
| 2026-04-26 06:27 | 57.57852 | 55.17934 | 10114 ft | 354 kts | 49° |
| 2026-04-26 06:27 | 57.59410 | 55.21650 | 9766 ft | 350 kts | 49° |
| 2026-04-26 06:28 | 57.60882 | 55.25174 | 9716 ft | 325 kts | 49° |
| 2026-04-26 06:28 | 57.62261 | 55.28479 | 9741 ft | 305 kts | 49° |
| 2026-04-26 06:28 | 57.63584 | 55.31650 | 9679 ft | 294 kts | 49° |
| 2026-04-26 06:28 | 57.64869 | 55.34726 | 9357 ft | 295 kts | 49° |
| 2026-04-26 06:29 | 57.66166 | 55.37836 | 9018 ft | 295 kts | 49° |
| 2026-04-26 06:29 | 57.67450 | 55.40924 | 8726 ft | 294 kts | 49° |
| 2026-04-26 06:29 | 57.68734 | 55.44015 | 8441 ft | 293 kts | 49° |
| 2026-04-26 06:29 | 57.70025 | 55.47126 | 8151 ft | 291 kts | 49° |
| 2026-04-26 06:30 | 57.71290 | 55.50178 | 7740 ft | 294 kts | 49° |
| 2026-04-26 06:30 | 57.72569 | 55.53271 | 7208 ft | 292 kts | 49° |
| 2026-04-26 06:30 | 57.73844 | 55.56357 | 6898 ft | 286 kts | 49° |
| 2026-04-26 06:30 | 57.75074 | 55.59343 | 6420 ft | 280 kts | 49° |
| 2026-04-26 06:31 | 57.76308 | 55.62260 | 5807 ft | 279 kts | 46° |
| 2026-04-26 06:31 | 57.77680 | 55.64946 | 5195 ft | 277 kts | 37° |
| 2026-04-26 06:31 | 57.79205 | 55.67265 | 4650 ft | 273 kts | 36° |
| 2026-04-26 06:31 | 57.80671 | 55.69445 | 4628 ft | 255 kts | 36° |
| 2026-04-26 06:32 | 57.82002 | 55.71726 | 4590 ft | 247 kts | 45° |
| 2026-04-26 06:32 | 57.83165 | 55.74130 | 4421 ft | 244 kts | 46° |
| 2026-04-26 06:32 | 57.84326 | 55.76551 | 4176 ft | 244 kts | 46° |
| 2026-04-26 06:32 | 57.85503 | 55.78996 | 3935 ft | 244 kts | 46° |
| 2026-04-26 06:33 | 57.86663 | 55.81395 | 3713 ft | 244 kts | 46° |
| 2026-04-26 06:33 | 57.87836 | 55.83815 | 3512 ft | 242 kts | 46° |
| 2026-04-26 06:33 | 57.88970 | 55.86152 | 3488 ft | 234 kts | 46° |
| 2026-04-26 06:33 | 57.90076 | 55.88435 | 3485 ft | 226 kts | 46° |
| 2026-04-26 06:34 | 57.91170 | 55.90698 | 3496 ft | 231 kts | 46° |
| 2026-04-26 06:34 | 57.92308 | 55.93045 | 3373 ft | 242 kts | 46° |
| 2026-04-26 06:34 | 57.93459 | 55.95414 | 3375 ft | 240 kts | 46° |
| 2026-04-26 06:34 | 57.94667 | 55.97716 | 3153 ft | 239 kts | 39° |
| 2026-04-26 06:35 | 57.95980 | 55.99727 | 2895 ft | 241 kts | 36° |
| 2026-04-26 06:35 | 57.97332 | 56.01723 | 2798 ft | 236 kts | 36° |
| 2026-04-26 06:35 | 57.98628 | 56.03640 | 2778 ft | 227 kts | 36° |
| 2026-04-26 06:35 | 57.99871 | 56.05487 | 2730 ft | 220 kts | 36° |
| 2026-04-26 06:36 | 58.01076 | 56.07281 | 2684 ft | 214 kts | 36° |
| 2026-04-26 06:36 | 58.02295 | 56.09056 | 2701 ft | 216 kts | 32° |
| 2026-04-26 06:36 | 58.03571 | 56.10680 | 2704 ft | 219 kts | 29° |
| 2026-04-26 06:36 | 58.04930 | 56.12159 | 2705 ft | 222 kts | 26° |
| 2026-04-26 06:37 | 58.06160 | 56.14073 | 2711 ft | 226 kts | 44° |
| 2026-04-26 06:37 | 58.07263 | 56.16322 | 2703 ft | 230 kts | 45° |
| 2026-04-26 06:37 | 58.08375 | 56.18621 | 2703 ft | 233 kts | 46° |
| 2026-04-26 06:37 | 58.09505 | 56.20956 | 2703 ft | 236 kts | 46° |
| 2026-04-26 06:38 | 58.10640 | 56.23302 | 2698 ft | 237 kts | 46° |
| 2026-04-26 06:38 | 58.11455 | 56.26035 | 2695 ft | 234 kts | 79° |
| 2026-04-26 06:38 | 58.11356 | 56.29066 | 2710 ft | 225 kts | 115° |
| 2026-04-26 06:38 | 58.10486 | 56.31513 | 2716 ft | 217 kts | 135° |
| 2026-04-26 06:39 | 58.09375 | 56.33464 | 2687 ft | 209 kts | 158° |
| 2026-04-26 06:39 | 58.07979 | 56.33899 | 2755 ft | 192 kts | 199° |
| 2026-04-26 06:39 | 58.06911 | 56.32678 | 2959 ft | 172 kts | 228° |
| 2026-04-26 06:39 | 58.06097 | 56.30978 | 2942 ft | 169 kts | 230° |
| 2026-04-26 06:40 | 58.05321 | 56.29339 | 2993 ft | 161 kts | 230° |
| 2026-04-26 06:40 | 58.04545 | 56.27712 | 2973 ft | 159 kts | 229° |
| 2026-04-26 06:40 | 58.03775 | 56.26205 | 2970 ft | 155 kts | 227° |
| 2026-04-26 06:40 | 58.03021 | 56.24736 | 2965 ft | 149 kts | 228° |
| 2026-04-26 06:41 | 58.02279 | 56.23284 | 2986 ft | 152 kts | 228° |
| 2026-04-26 06:41 | 58.01528 | 56.21812 | 3047 ft | 147 kts | 228° |
| 2026-04-26 06:41 | 58.00827 | 56.20440 | 2809 ft | 140 kts | 228° |
| 2026-04-26 06:41 | 58.00161 | 56.19139 | 2624 ft | 124 kts | 228° |
| 2026-04-26 06:42 | 57.99573 | 56.17989 | 2410 ft | 118 kts | 229° |
| 2026-04-26 06:42 | 57.98982 | 56.16826 | 2288 ft | 122 kts | 229° |
| 2026-04-26 06:42 | 57.98363 | 56.15614 | 2126 ft | 124 kts | 228° |
| 2026-04-26 06:42 | 57.97747 | 56.14407 | 1948 ft | 125 kts | 228° |
| 2026-04-26 06:43 | 57.97122 | 56.13185 | 1765 ft | 127 kts | 228° |
| 2026-04-26 06:43 | 57.96491 | 56.11953 | 1589 ft | 128 kts | 228° |
| 2026-04-26 06:43 | 57.95859 | 56.10720 | 1407 ft | 127 kts | 228° |
| 2026-04-26 06:43 | 57.95231 | 56.09496 | 1218 ft | 126 kts | 228° |
| 2026-04-26 06:44 | 57.94619 | 56.08288 | 1016 ft | 124 kts | 229° |
| 2026-04-26 06:44 | 57.94007 | 56.07079 | 850 ft | 123 kts | 229° |
| 2026-04-26 06:44 | 57.93389 | 56.05887 | 700 ft | 124 kts | 229° |
| 2026-04-26 06:44 | 57.92776 | 56.04715 | 540 ft | 123 kts | 229° |
| 2026-04-26 06:45 | 57.92168 | 56.03563 | 411 ft | 113 kts | 226° |
| 2026-04-26 06:45 | 57.91586 | 56.02402 | 410 ft | 136 kts | 228° |
| 2026-04-26 06:45 | 57.91032 | 56.01317 | 410 ft | 88 kts | 225° |
| 2026-04-26 06:45 | 57.90683 | 56.00642 | 410 ft | 53 kts | 226° |
| 2026-04-26 06:46 | 57.90522 | 56.00273 | 410 ft | 19 kts | 250° |